sensor_id;sensor_type;location;lat;lon;timestamp;temperature;humidity
28069;DHT22;15382;47.578;8.086;2023-11-19T00:02:24;6.60;99.90
28069;DHT22;15382;47.578;8.086;2023-11-19T00:12:24;6.40;99.90
28069;DHT22;15382;47.578;8.086;2023-11-19T00:22:25;6.20;99.90
28069;DHT22;15382;47.578;8.086;2023-11-19T00:32:26;6.30;99.90
28069;DHT22;15382;47.578;8.086;2023-11-19T00:42:27;6.40;99.90
28069;DHT22;15382;47.578;8.086;2023-11-19T00:52:27;6.30;99.90
28069;DHT22;15382;47.578;8.086;2023-11-19T01:02:28;6.30;99.90
28069;DHT22;15382;47.578;8.086;2023-11-19T01:12:30;6.30;99.90
28069;DHT22;15382;47.578;8.086;2023-11-19T01:22:31;6.50;99.90
28069;DHT22;15382;47.578;8.086;2023-11-19T01:32:32;6.50;99.90
28069;DHT22;15382;47.578;8.086;2023-11-19T01:42:39;6.50;99.90
28069;DHT22;15382;47.578;8.086;2023-11-19T01:52:40;6.50;99.90
28069;DHT22;15382;47.578;8.086;2023-11-19T02:02:46;6.60;99.90
28069;DHT22;15382;47.578;8.086;2023-11-19T02:12:48;6.50;99.90
28069;DHT22;15382;47.578;8.086;2023-11-19T02:22:49;6.60;99.90
28069;DHT22;15382;47.578;8.086;2023-11-19T02:32:53;6.60;99.90
28069;DHT22;15382;47.578;8.086;2023-11-19T02:42:54;6.60;99.90
28069;DHT22;15382;47.578;8.086;2023-11-19T02:52:56;6.70;99.90
28069;DHT22;15382;47.578;8.086;2023-11-19T03:02:56;6.70;99.90
28069;DHT22;15382;47.578;8.086;2023-11-19T03:13:05;6.60;99.90
28069;DHT22;15382;47.578;8.086;2023-11-19T03:23:12;6.60;99.90
28069;DHT22;15382;47.578;8.086;2023-11-19T03:33:12;6.70;99.90
28069;DHT22;15382;47.578;8.086;2023-11-19T03:43:13;6.80;99.90
28069;DHT22;15382;47.578;8.086;2023-11-19T03:53:14;6.80;99.90
28069;DHT22;15382;47.578;8.086;2023-11-19T04:03:15;6.90;99.90
28069;DHT22;15382;47.578;8.086;2023-11-19T04:13:15;6.80;99.90
28069;DHT22;15382;47.578;8.086;2023-11-19T04:23:16;6.70;99.90
28069;DHT22;15382;47.578;8.086;2023-11-19T04:33:17;6.80;99.90
28069;DHT22;15382;47.578;8.086;2023-11-19T04:43:18;6.80;99.90
28069;DHT22;15382;47.578;8.086;2023-11-19T04:53:19;6.90;99.90
28069;DHT22;15382;47.578;8.086;2023-11-19T05:03:20;7.10;99.90
28069;DHT22;15382;47.578;8.086;2023-11-19T05:13:21;7.00;99.90
28069;DHT22;15382;47.578;8.086;2023-11-19T05:23:22;6.90;99.90
28069;DHT22;15382;47.578;8.086;2023-11-19T05:33:23;7.00;99.90
28069;DHT22;15382;47.578;8.086;2023-11-19T05:43:23;7.10;99.90
28069;DHT22;15382;47.578;8.086;2023-11-19T05:53:24;7.10;99.90
28069;DHT22;15382;47.578;8.086;2023-11-19T06:03:25;7.20;99.90
28069;DHT22;15382;47.578;8.086;2023-11-19T06:13:26;7.20;99.90
28069;DHT22;15382;47.578;8.086;2023-11-19T06:23:27;7.30;99.90
28069;DHT22;15382;47.578;8.086;2023-11-19T06:33:27;7.20;99.90
28069;DHT22;15382;47.578;8.086;2023-11-19T06:43:28;7.20;99.90
28069;DHT22;15382;47.578;8.086;2023-11-19T06:53:29;7.60;99.90
28069;DHT22;15382;47.578;8.086;2023-11-19T07:03:30;8.20;99.90
28069;DHT22;15382;47.578;8.086;2023-11-19T07:13:30;8.50;99.90
28069;DHT22;15382;47.578;8.086;2023-11-19T07:23:31;8.60;99.90
28069;DHT22;15382;47.578;8.086;2023-11-19T07:33:33;8.60;99.90
28069;DHT22;15382;47.578;8.086;2023-11-19T07:43:34;8.80;99.90
28069;DHT22;15382;47.578;8.086;2023-11-19T07:53:34;8.90;99.90
28069;DHT22;15382;47.578;8.086;2023-11-19T08:03:35;9.30;99.90
28069;DHT22;15382;47.578;8.086;2023-11-19T08:13:36;9.60;99.90
28069;DHT22;15382;47.578;8.086;2023-11-19T08:23:36;10.10;99.90
28069;DHT22;15382;47.578;8.086;2023-11-19T08:33:38;10.30;99.90
28069;DHT22;15382;47.578;8.086;2023-11-19T08:43:38;10.40;99.90
28069;DHT22;15382;47.578;8.086;2023-11-19T08:53:40;10.10;99.90
28069;DHT22;15382;47.578;8.086;2023-11-19T09:03:41;11.00;99.90
28069;DHT22;15382;47.578;8.086;2023-11-19T09:13:42;11.00;99.90
28069;DHT22;15382;47.578;8.086;2023-11-19T09:23:42;10.60;99.90
28069;DHT22;15382;47.578;8.086;2023-11-19T09:33:47;10.40;99.90
28069;DHT22;15382;47.578;8.086;2023-11-19T09:43:48;10.50;99.90
28069;DHT22;15382;47.578;8.086;2023-11-19T09:53:48;10.70;99.90
28069;DHT22;15382;47.578;8.086;2023-11-19T10:03:50;10.80;99.90
28069;DHT22;15382;47.578;8.086;2023-11-19T10:13:51;11.00;99.90
28069;DHT22;15382;47.578;8.086;2023-11-19T10:23:53;11.20;99.90
28069;DHT22;15382;47.578;8.086;2023-11-19T10:33:54;11.30;99.90
28069;DHT22;15382;47.578;8.086;2023-11-19T10:43:55;11.40;99.90
28069;DHT22;15382;47.578;8.086;2023-11-19T10:53:56;11.50;99.90
28069;DHT22;15382;47.578;8.086;2023-11-19T11:04:00;11.70;99.90
28069;DHT22;15382;47.578;8.086;2023-11-19T11:14:04;11.80;99.90
28069;DHT22;15382;47.578;8.086;2023-11-19T11:34:58;12.10;99.90
28069;DHT22;15382;47.578;8.086;2023-11-19T11:54:52;12.60;99.90
28069;DHT22;15382;47.578;8.086;2023-11-19T12:04:53;12.70;99.90
28069;DHT22;15382;47.578;8.086;2023-11-19T12:15:09;12.70;99.90
28069;DHT22;15382;47.578;8.086;2023-11-19T12:25:11;12.80;99.90
28069;DHT22;15382;47.578;8.086;2023-11-19T12:35:14;12.80;99.90
28069;DHT22;15382;47.578;8.086;2023-11-19T12:45:15;12.90;99.90
28069;DHT22;15382;47.578;8.086;2023-11-19T12:55:26;12.90;99.90
28069;DHT22;15382;47.578;8.086;2023-11-19T13:15:28;13.10;99.90
28069;DHT22;15382;47.578;8.086;2023-11-19T13:25:29;13.20;99.90
28069;DHT22;15382;47.578;8.086;2023-11-19T13:35:30;13.80;99.90
28069;DHT22;15382;47.578;8.086;2023-11-19T13:45:30;13.80;99.90
28069;DHT22;15382;47.578;8.086;2023-11-19T13:55:31;13.70;99.90
28069;DHT22;15382;47.578;8.086;2023-11-19T14:05:32;13.70;99.90
28069;DHT22;15382;47.578;8.086;2023-11-19T14:15:34;13.70;99.90
28069;DHT22;15382;47.578;8.086;2023-11-19T14:25:36;14.00;99.90
28069;DHT22;15382;47.578;8.086;2023-11-19T14:35:36;13.80;99.90
28069;DHT22;15382;47.578;8.086;2023-11-19T14:45:37;13.40;99.90
28069;DHT22;15382;47.578;8.086;2023-11-19T14:55:38;13.20;99.90
28069;DHT22;15382;47.578;8.086;2023-11-19T15:05:39;13.00;99.90
28069;DHT22;15382;47.578;8.086;2023-11-19T15:15:39;12.90;99.90
28069;DHT22;15382;47.578;8.086;2023-11-19T15:25:40;12.70;99.90
28069;DHT22;15382;47.578;8.086;2023-11-19T15:35:41;12.50;99.90
28069;DHT22;15382;47.578;8.086;2023-11-19T15:45:42;12.40;99.90
28069;DHT22;15382;47.578;8.086;2023-11-19T15:55:42;12.20;99.90
28069;DHT22;15382;47.578;8.086;2023-11-19T16:05:44;11.80;99.90
28069;DHT22;15382;47.578;8.086;2023-11-19T16:15:45;11.70;99.90
28069;DHT22;15382;47.578;8.086;2023-11-19T16:25:46;11.60;99.90
28069;DHT22;15382;47.578;8.086;2023-11-19T16:35:46;11.60;99.90
28069;DHT22;15382;47.578;8.086;2023-11-19T16:45:47;11.60;99.90
28069;DHT22;15382;47.578;8.086;2023-11-19T16:55:48;11.50;99.90
28069;DHT22;15382;47.578;8.086;2023-11-19T17:05:49;11.60;99.90
28069;DHT22;15382;47.578;8.086;2023-11-19T17:15:50;11.50;99.90
28069;DHT22;15382;47.578;8.086;2023-11-19T17:25:52;11.50;99.90
28069;DHT22;15382;47.578;8.086;2023-11-19T17:35:53;11.60;99.90
28069;DHT22;15382;47.578;8.086;2023-11-19T17:45:55;11.40;99.90
28069;DHT22;15382;47.578;8.086;2023-11-19T17:56:00;11.70;99.90
28069;DHT22;15382;47.578;8.086;2023-11-19T18:06:01;11.40;99.90
28069;DHT22;15382;47.578;8.086;2023-11-19T18:16:02;11.10;99.90
28069;DHT22;15382;47.578;8.086;2023-11-19T18:26:03;10.80;99.90
28069;DHT22;15382;47.578;8.086;2023-11-19T18:36:04;11.10;99.90
28069;DHT22;15382;47.578;8.086;2023-11-19T18:46:07;11.90;99.90
28069;DHT22;15382;47.578;8.086;2023-11-19T18:56:08;12.10;99.90
28069;DHT22;15382;47.578;8.086;2023-11-19T19:06:09;12.30;99.90
28069;DHT22;15382;47.578;8.086;2023-11-19T19:16:10;12.40;99.90
28069;DHT22;15382;47.578;8.086;2023-11-19T19:26:11;12.50;99.90
28069;DHT22;15382;47.578;8.086;2023-11-19T19:36:11;12.50;99.90
28069;DHT22;15382;47.578;8.086;2023-11-19T19:46:12;12.50;99.90
28069;DHT22;15382;47.578;8.086;2023-11-19T19:56:13;12.60;99.90
28069;DHT22;15382;47.578;8.086;2023-11-19T20:06:14;12.70;99.90
28069;DHT22;15382;47.578;8.086;2023-11-19T20:16:14;12.70;99.90
28069;DHT22;15382;47.578;8.086;2023-11-19T20:26:15;12.60;99.90
28069;DHT22;15382;47.578;8.086;2023-11-19T20:36:19;12.60;99.90
28069;DHT22;15382;47.578;8.086;2023-11-19T20:46:20;12.70;99.90
28069;DHT22;15382;47.578;8.086;2023-11-19T20:56:21;12.60;99.90
28069;DHT22;15382;47.578;8.086;2023-11-19T21:06:21;12.60;99.90
28069;DHT22;15382;47.578;8.086;2023-11-19T21:16:23;12.50;99.90
28069;DHT22;15382;47.578;8.086;2023-11-19T21:26:26;12.40;99.90
28069;DHT22;15382;47.578;8.086;2023-11-19T21:36:27;12.30;99.90
28069;DHT22;15382;47.578;8.086;2023-11-19T21:46:28;12.20;99.90
28069;DHT22;15382;47.578;8.086;2023-11-19T21:56:28;12.20;99.90
28069;DHT22;15382;47.578;8.086;2023-11-19T22:06:29;12.20;99.90
28069;DHT22;15382;47.578;8.086;2023-11-19T22:16:30;12.20;99.90
28069;DHT22;15382;47.578;8.086;2023-11-19T22:26:30;12.20;99.90
28069;DHT22;15382;47.578;8.086;2023-11-19T22:36:31;12.20;99.90
28069;DHT22;15382;47.578;8.086;2023-11-19T22:46:32;12.20;99.90
28069;DHT22;15382;47.578;8.086;2023-11-19T22:56:33;12.20;99.90
28069;DHT22;15382;47.578;8.086;2023-11-19T23:06:33;12.20;99.90
28069;DHT22;15382;47.578;8.086;2023-11-19T23:16:37;12.00;99.90
28069;DHT22;15382;47.578;8.086;2023-11-19T23:26:39;12.20;99.90
28069;DHT22;15382;47.578;8.086;2023-11-19T23:36:41;12.20;99.90
28069;DHT22;15382;47.578;8.086;2023-11-19T23:46:42;12.10;99.90
28069;DHT22;15382;47.578;8.086;2023-11-19T23:56:43;12.20;99.90
